Time;durP1;ratioP1;P1;durP2;ratioP2;P2;SDS_P1;SDS_P2;PMS_P1;PMS_P2;Temp;Humidity;BMP_temperature;BMP_pressure;BME280_temperature;BME280_humidity;BME280_pressure;Samples;Min_cycle;Max_cycle;Signal;HPM_P1;HPM_P2
2022/02/24 00:00:21;;;;;;;7.32;1.95;;;13.30;59.40;;;;;;4863653;29;20057;-75
2022/02/24 00:02:48;;;;;;;7.70;1.90;;;13.30;59.40;;;;;;4854788;29;20046;-75
2022/02/24 00:05:15;;;;;;;6.82;1.70;;;13.20;59.40;;;;;;4861466;29;20535;-75
2022/02/24 00:07:41;;;;;;;7.57;2.17;;;13.20;59.50;;;;;;4864245;29;20064;-74
2022/02/24 00:10:10;;;;;;;7.55;2.03;;;13.30;59.60;;;;;;4857081;29;20179;-73
2022/02/24 00:12:37;;;;;;;8.00;1.95;;;13.20;59.70;;;;;;4856271;29;20470;-74
2022/02/24 00:15:05;;;;;;;5.60;1.52;;;13.20;59.60;;;;;;4863826;29;20082;-75
2022/02/24 00:17:31;;;;;;;6.43;2.40;;;13.20;59.60;;;;;;4863612;29;20391;-75
2022/02/24 00:19:56;;;;;;;6.82;1.92;;;13.20;59.70;;;;;;4864117;29;20124;-75
2022/02/24 00:22:22;;;;;;;6.68;2.15;;;13.20;59.70;;;;;;4862640;29;20064;-76
2022/02/24 00:24:49;;;;;;;6.35;1.98;;;13.20;59.60;;;;;;4862966;29;20132;-74
2022/02/24 00:27:15;;;;;;;6.65;2.00;;;13.10;59.40;;;;;;4863269;29;20049;-74
2022/02/24 00:29:41;;;;;;;6.60;2.05;;;13.10;59.70;;;;;;4863845;29;20057;-74
2022/02/24 00:32:07;;;;;;;6.13;1.52;;;13.10;60.00;;;;;;4863351;29;20463;-75
2022/02/24 00:34:33;;;;;;;8.13;1.73;;;13.10;59.70;;;;;;4862648;29;20061;-74
2022/02/24 00:37:01;;;;;;;8.32;2.00;;;13.10;59.70;;;;;;4863334;29;20045;-74
2022/02/24 00:39:26;;;;;;;9.13;2.22;;;13.10;59.80;;;;;;4863068;29;20055;-74
2022/02/24 00:41:53;;;;;;;6.68;1.77;;;13.10;59.90;;;;;;4863515;29;20042;-73
2022/02/24 00:44:19;;;;;;;7.50;2.22;;;13.10;60.00;;;;;;4863220;29;20053;-74
2022/02/24 00:46:45;;;;;;;6.80;1.45;;;13.10;60.00;;;;;;4862462;29;20053;-74
2022/02/24 00:49:11;;;;;;;5.55;1.90;;;13.00;59.90;;;;;;4863376;29;20140;-73
2022/02/24 00:51:38;;;;;;;8.00;1.90;;;13.10;60.00;;;;;;4862679;29;20053;-75
2022/02/24 00:54:04;;;;;;;8.18;1.67;;;13.00;60.00;;;;;;4863176;29;20495;-75
2022/02/24 00:56:30;;;;;;;7.95;1.88;;;13.00;60.00;;;;;;4862058;29;20058;-74
2022/02/24 00:58:56;;;;;;;8.77;2.33;;;13.00;60.00;;;;;;4863047;29;20411;-74
2022/02/24 01:01:22;;;;;;;6.50;2.15;;;13.00;60.10;;;;;;4862492;29;20111;-75
2022/02/24 01:03:48;;;;;;;7.07;2.15;;;13.00;60.00;;;;;;4863104;29;20074;-75
2022/02/24 01:06:14;;;;;;;8.32;2.17;;;13.00;60.20;;;;;;4862783;29;20057;-73
2022/02/24 01:08:40;;;;;;;6.22;1.70;;;13.00;60.10;;;;;;4862538;29;20060;-74
2022/02/24 01:11:06;;;;;;;7.22;1.70;;;12.90;60.20;;;;;;4863141;29;20132;-75
2022/02/24 01:13:31;;;;;;;7.78;2.00;;;13.00;60.10;;;;;;4862688;29;20364;-74
2022/02/24 01:15:57;;;;;;;6.28;1.60;;;12.90;60.20;;;;;;4862777;29;20213;-74
2022/02/24 01:18:23;;;;;;;8.02;2.03;;;12.90;60.10;;;;;;4862914;29;20475;-74
2022/02/24 01:20:49;;;;;;;6.40;1.75;;;12.90;60.20;;;;;;4861731;29;20050;-74
2022/02/24 01:23:15;;;;;;;9.07;2.35;;;12.90;60.40;;;;;;4861693;29;20052;-74
2022/02/24 01:25:40;;;;;;;9.07;2.10;;;12.90;60.40;;;;;;4862484;29;20094;-75
2022/02/24 01:28:06;;;;;;;6.03;1.50;;;12.90;60.40;;;;;;4863015;29;20049;-74
2022/02/24 01:30:32;;;;;;;8.18;2.20;;;12.90;61.10;;;;;;4862491;29;20348;-74
2022/02/24 01:32:58;;;;;;;7.95;2.03;;;12.90;60.50;;;;;;4862244;29;20060;-73
2022/02/24 01:35:24;;;;;;;8.95;2.03;;;12.90;60.60;;;;;;4862167;29;20428;-73
2022/02/24 01:37:50;;;;;;;5.22;2.15;;;12.80;60.80;;;;;;4862185;29;20057;-74
2022/02/24 01:40:16;;;;;;;9.25;1.98;;;12.90;60.80;;;;;;4862521;29;20049;-73
2022/02/24 01:42:42;;;;;;;7.07;1.95;;;12.80;60.60;;;;;;4862237;29;20148;-74
2022/02/24 01:45:10;;;;;;;6.95;1.63;;;12.80;60.70;;;;;;4862687;29;20124;-75
2022/02/24 01:47:36;;;;;;;8.25;1.98;;;12.80;60.60;;;;;;4862206;29;20371;-73
2022/02/24 01:50:03;;;;;;;8.23;2.38;;;12.80;60.60;;;;;;4861201;29;20054;-73
2022/02/24 01:52:29;;;;;;;7.43;2.47;;;12.80;60.70;;;;;;4860098;29;20425;-73
2022/02/24 01:54:55;;;;;;;6.82;2.25;;;12.80;60.70;;;;;;4861534;29;20045;-73
2022/02/24 01:57:22;;;;;;;8.95;2.25;;;12.80;60.70;;;;;;4858382;29;20081;-74
2022/02/24 01:59:48;;;;;;;7.47;1.98;;;12.80;60.80;;;;;;4860301;29;20053;-74
2022/02/24 02:02:15;;;;;;;7.18;1.85;;;12.70;60.80;;;;;;4862186;29;20059;-74
2022/02/24 02:04:42;;;;;;;6.63;1.58;;;12.70;60.80;;;;;;4862014;29;20076;-74
2022/02/24 02:07:07;;;;;;;10.65;2.10;;;12.70;60.90;;;;;;4862115;29;20383;-74
2022/02/24 02:09:34;;;;;;;5.32;1.63;;;12.70;60.90;;;;;;4862298;29;20053;-73
2022/02/24 02:12:00;;;;;;;8.07;2.00;;;12.70;60.90;;;;;;4861907;29;20143;-73
2022/02/24 02:14:26;;;;;;;7.90;2.35;;;12.70;60.90;;;;;;4862141;29;20049;-73
2022/02/24 02:16:52;;;;;;;8.00;2.05;;;12.80;61.00;;;;;;4862001;29;20061;-75
2022/02/24 02:19:19;;;;;;;7.65;2.15;;;12.70;60.70;;;;;;4862014;29;20110;-73
2022/02/24 02:21:45;;;;;;;7.45;2.40;;;12.70;60.60;;;;;;4861904;29;20475;-74
2022/02/24 02:24:12;;;;;;;7.72;1.90;;;12.60;60.70;;;;;;4861912;29;20091;-74
2022/02/24 02:26:38;;;;;;;4.70;1.70;;;12.70;60.90;;;;;;4862059;29;20124;-74
2022/02/24 02:29:08;;;;;;;6.88;1.65;;;12.60;60.80;;;;;;4861815;29;20478;-74
2022/02/24 02:31:34;;;;;;;7.00;2.30;;;12.60;60.80;;;;;;4861558;29;21351;-74
2022/02/24 02:34:11;;;;;;;8.45;2.50;;;12.60;60.80;;;;;;4861614;29;20068;-73
2022/02/24 02:36:38;;;;;;;5.55;1.77;;;12.70;60.40;;;;;;4862256;29;20371;-75
2022/02/24 02:39:06;;;;;;;9.43;2.50;;;12.60;60.80;;;;;;4861574;29;20063;-74
2022/02/24 02:41:33;;;;;;;6.25;2.08;;;12.60;60.90;;;;;;4861944;29;20100;-74
2022/02/24 02:43:59;;;;;;;7.70;2.45;;;12.60;60.90;;;;;;4861579;29;20049;-73
2022/02/24 02:46:25;;;;;;;8.98;2.63;;;12.60;60.90;;;;;;4862038;29;20160;-73
2022/02/24 02:48:51;;;;;;;5.55;1.98;;;12.60;61.00;;;;;;4861700;29;20118;-73
2022/02/24 02:51:17;;;;;;;7.78;2.08;;;12.60;60.90;;;;;;4861765;29;20061;-74
2022/02/24 02:53:44;;;;;;;6.82;2.17;;;12.60;61.00;;;;;;4860983;29;20050;-73
2022/02/24 02:56:10;;;;;;;8.27;1.88;;;12.60;60.80;;;;;;4861515;29;20367;-74
2022/02/24 02:58:36;;;;;;;8.75;1.90;;;12.60;60.90;;;;;;4861874;29;20403;-73
2022/02/24 03:01:02;;;;;;;6.38;1.92;;;12.60;61.70;;;;;;4861730;29;20065;-75
2022/02/24 03:03:27;;;;;;;7.38;1.77;;;12.60;61.20;;;;;;4865171;29;20482;-74
2022/02/24 03:05:54;;;;;;;9.80;2.40;;;12.60;61.00;;;;;;4860835;29;20460;-72
2022/02/24 03:08:20;;;;;;;5.82;1.58;;;12.50;60.80;;;;;;4864850;29;20048;-75
2022/02/24 03:10:46;;;;;;;6.38;2.03;;;12.50;61.00;;;;;;4865053;29;20045;-74
2022/02/24 03:13:12;;;;;;;5.93;1.90;;;12.50;61.10;;;;;;4863998;29;20073;-74
2022/02/24 03:15:38;;;;;;;9.10;1.90;;;12.50;61.10;;;;;;4864492;29;20498;-74
2022/02/24 03:18:04;;;;;;;6.90;1.80;;;12.50;61.20;;;;;;4863918;29;20041;-73
2022/02/24 03:20:32;;;;;;;7.47;2.20;;;12.50;60.80;;;;;;4864743;29;20037;-74
2022/02/24 03:23:03;;;;;;;6.03;1.67;;;12.50;61.00;;;;;;4864932;29;20053;-74
2022/02/24 03:25:30;;;;;;;7.55;2.22;;;12.40;60.90;;;;;;4864808;29;20504;-73
2022/02/24 03:27:56;;;;;;;8.90;2.28;;;12.40;61.10;;;;;;4864083;29;20466;-74
2022/02/24 03:30:23;;;;;;;4.32;1.70;;;12.40;61.00;;;;;;4864433;29;20064;-74
2022/02/24 03:32:49;;;;;;;7.95;2.08;;;12.40;61.10;;;;;;4864608;29;20053;-73
2022/02/24 03:35:16;;;;;;;7.25;1.77;;;12.40;61.20;;;;;;4864430;29;20387;-74
2022/02/24 03:37:43;;;;;;;12.52;2.20;;;12.40;61.10;;;;;;4864362;29;20045;-74
2022/02/24 03:40:10;;;;;;;10.75;2.55;;;12.40;61.70;;;;;;4864056;29;20490;-73
2022/02/24 03:42:36;;;;;;;8.00;2.15;;;12.40;61.00;;;;;;4864704;29;20136;-73
2022/02/24 03:45:03;;;;;;;8.23;2.38;;;12.40;61.10;;;;;;4864460;29;20120;-72
2022/02/24 03:47:28;;;;;;;5.35;2.10;;;12.40;61.10;;;;;;4864263;29;20075;-73
2022/02/24 03:49:54;;;;;;;5.57;1.63;;;12.40;61.10;;;;;;4864414;29;20060;-73
2022/02/24 03:52:20;;;;;;;7.72;2.40;;;12.40;61.00;;;;;;4863996;29;20045;-73
2022/02/24 03:54:47;;;;;;;7.40;1.80;;;12.30;61.00;;;;;;4864135;29;20375;-74
2022/02/24 03:57:14;;;;;;;6.20;2.15;;;12.30;61.10;;;;;;4863868;29;20142;-74
2022/02/24 03:59:41;;;;;;;10.30;1.90;;;12.30;61.10;;;;;;4864330;29;20117;-74
2022/02/24 04:02:07;;;;;;;7.38;2.25;;;12.30;61.30;;;;;;4863258;29;20473;-74
2022/02/24 04:04:33;;;;;;;6.35;1.98;;;12.30;61.20;;;;;;4863320;29;20049;-73
2022/02/24 04:06:59;;;;;;;12.00;1.98;;;12.30;61.20;;;;;;4863972;29;20061;-73
2022/02/24 04:09:25;;;;;;;6.70;2.08;;;12.30;61.10;;;;;;4863879;29;20064;-73
2022/02/24 04:11:51;;;;;;;7.32;1.77;;;12.30;61.30;;;;;;4863069;29;20045;-72
2022/02/24 04:14:17;;;;;;;7.25;1.88;;;12.30;61.30;;;;;;4863143;29;20055;-74
2022/02/24 04:16:43;;;;;;;5.63;1.80;;;12.30;61.30;;;;;;4863827;29;20053;-73
2022/02/24 04:19:09;;;;;;;11.88;2.00;;;12.30;61.40;;;;;;4864062;29;20169;-73
2022/02/24 04:21:35;;;;;;;4.72;1.85;;;12.30;61.40;;;;;;4863668;29;20471;-74
2022/02/24 04:24:02;;;;;;;9.30;1.80;;;12.30;61.40;;;;;;4863798;29;20209;-74
2022/02/24 04:26:27;;;;;;;7.10;1.85;;;12.30;61.40;;;;;;4863358;29;20371;-73
2022/02/24 04:28:53;;;;;;;5.57;1.77;;;12.30;61.40;;;;;;4860851;29;20064;-73
2022/02/24 04:31:19;;;;;;;10.13;2.38;;;12.30;61.50;;;;;;4862572;29;20051;-72
2022/02/24 04:33:45;;;;;;;7.78;1.90;;;12.30;61.70;;;;;;4863677;29;20379;-75
2022/02/24 04:36:11;;;;;;;8.35;2.30;;;12.30;61.80;;;;;;4863278;29;20049;-73
2022/02/24 04:38:36;;;;;;;7.20;1.88;;;12.20;62.00;;;;;;4862399;29;20459;-73
2022/02/24 04:41:02;;;;;;;12.38;2.10;;;12.20;62.10;;;;;;4863246;29;20433;-72
2022/02/24 04:43:28;;;;;;;10.18;2.40;;;12.20;62.10;;;;;;4862883;29;20208;-73
2022/02/24 04:45:54;;;;;;;9.07;1.90;;;12.20;62.30;;;;;;4863444;29;20107;-73
2022/02/24 04:48:21;;;;;;;13.88;2.67;;;12.20;62.40;;;;;;4863463;29;20053;-74
2022/02/24 04:50:47;;;;;;;10.40;3.08;;;12.10;62.30;;;;;;4863325;29;20133;-73
2022/02/24 04:53:14;;;;;;;6.70;1.60;;;12.10;62.50;;;;;;4863147;29;20049;-73
2022/02/24 04:55:41;;;;;;;9.07;3.05;;;12.10;62.70;;;;;;4862100;29;20136;-74
2022/02/24 04:58:06;;;;;;;6.38;1.50;;;12.10;62.80;;;;;;4862899;29;20524;-72
2022/02/24 05:00:32;;;;;;;8.82;1.70;;;12.00;62.70;;;;;;4863479;29;20132;-75
2022/02/24 05:02:58;;;;;;;9.15;2.22;;;12.00;62.80;;;;;;4863043;29;20049;-73
2022/02/24 05:05:23;;;;;;;8.10;2.08;;;12.10;62.80;;;;;;4863011;29;20142;-74
2022/02/24 05:07:49;;;;;;;7.68;2.13;;;12.00;62.80;;;;;;4862802;29;20057;-73
2022/02/24 05:10:15;;;;;;;8.05;2.70;;;12.00;62.90;;;;;;4862802;29;20124;-74
2022/02/24 05:12:42;;;;;;;10.48;2.83;;;12.00;62.80;;;;;;4862823;29;20140;-73
2022/02/24 05:15:08;;;;;;;6.03;2.15;;;12.00;62.90;;;;;;4862272;29;20128;-73
2022/02/24 05:17:36;;;;;;;8.30;2.35;;;12.00;62.80;;;;;;4862092;29;20144;-73
2022/02/24 05:20:03;;;;;;;8.38;1.98;;;12.00;62.90;;;;;;4862944;29;20141;-73
2022/02/24 05:22:29;;;;;;;10.05;2.38;;;12.00;63.10;;;;;;4862835;29;20045;-73
2022/02/24 05:24:54;;;;;;;8.68;2.50;;;12.00;63.00;;;;;;4861504;29;20185;-72
2022/02/24 05:27:20;;;;;;;6.03;1.70;;;11.90;63.10;;;;;;4862688;29;20269;-73
2022/02/24 05:29:46;;;;;;;8.13;2.13;;;12.00;63.10;;;;;;4861491;29;20053;-74
2022/02/24 05:32:12;;;;;;;8.32;2.05;;;12.00;63.10;;;;;;4862379;29;20064;-73
2022/02/24 05:34:38;;;;;;;9.45;2.45;;;12.00;63.10;;;;;;4862649;29;20060;-73
2022/02/24 05:37:04;;;;;;;7.47;2.17;;;12.00;63.20;;;;;;4862196;29;20042;-74
2022/02/24 05:39:29;;;;;;;6.50;1.83;;;11.90;63.20;;;;;;4862446;29;20081;-73
2022/02/24 05:41:55;;;;;;;7.95;2.05;;;11.90;63.10;;;;;;4862361;29;20057;-72
2022/02/24 05:44:21;;;;;;;8.85;2.13;;;12.00;63.20;;;;;;4862137;29;20129;-73
2022/02/24 05:46:47;;;;;;;7.38;1.90;;;12.00;63.10;;;;;;4858769;29;20048;-73
2022/02/24 05:49:15;;;;;;;8.30;2.03;;;11.90;63.10;;;;;;4862705;29;20117;-72
2022/02/24 05:51:41;;;;;;;8.90;2.25;;;11.90;63.10;;;;;;4862472;29;20419;-74
2022/02/24 05:54:07;;;;;;;8.50;2.45;;;11.90;63.20;;;;;;4861917;29;20113;-73
2022/02/24 05:56:33;;;;;;;6.13;1.85;;;11.90;63.20;;;;;;4861961;29;20416;-73
2022/02/24 05:58:59;;;;;;;7.00;1.85;;;11.90;63.30;;;;;;4861384;29;20050;-73
2022/02/24 06:01:24;;;;;;;8.57;2.38;;;11.90;63.40;;;;;;4862294;29;20178;-73
2022/02/24 06:03:50;;;;;;;6.50;1.67;;;11.90;63.60;;;;;;4862178;29;20470;-74
2022/02/24 06:06:16;;;;;;;7.22;2.45;;;11.90;63.80;;;;;;4861832;29;20469;-74
2022/02/24 06:08:42;;;;;;;8.32;1.88;;;11.90;63.80;;;;;;4862301;29;20061;-73
2022/02/24 06:11:08;;;;;;;7.05;1.52;;;12.00;64.00;;;;;;4861714;29;20512;-73
2022/02/24 06:13:34;;;;;;;10.18;2.10;;;11.90;64.00;;;;;;4862216;29;20053;-73
2022/02/24 06:16:01;;;;;;;9.23;1.95;;;11.90;64.10;;;;;;4861721;29;20041;-72
2022/02/24 06:18:27;;;;;;;7.93;2.35;;;11.90;64.20;;;;;;4862186;29;20056;-73
2022/02/24 06:20:53;;;;;;;10.07;1.77;;;11.90;64.20;;;;;;4861951;29;20120;-73
2022/02/24 06:23:19;;;;;;;8.65;1.98;;;12.00;64.20;;;;;;4861480;29;20068;-77
2022/02/24 06:25:45;;;;;;;7.45;2.00;;;12.20;64.70;;;;;;4861400;29;20045;-79
2022/02/24 06:28:11;;;;;;;9.15;2.10;;;12.30;63.40;;;;;;4861626;29;20464;-79
2022/02/24 06:30:37;;;;;;;10.00;1.85;;;12.40;63.00;;;;;;4861187;29;20086;-80
2022/02/24 06:33:04;;;;;;;10.35;2.45;;;12.50;62.70;;;;;;4861240;29;20329;-79
2022/02/24 06:35:30;;;;;;;11.55;1.98;;;12.60;62.40;;;;;;4860813;29;20061;-77
2022/02/24 06:37:56;;;;;;;6.85;1.63;;;12.60;62.20;;;;;;4863694;29;20489;-79
2022/02/24 06:40:22;;;;;;;14.98;2.70;;;12.70;62.40;;;;;;4860338;29;20348;-82
2022/02/24 06:42:48;;;;;;;10.45;2.13;;;12.60;62.60;;;;;;4864203;29;20053;-76
2022/02/24 06:45:14;;;;;;;12.93;2.65;;;12.80;62.30;;;;;;4865655;29;20045;-75
2022/02/24 06:47:40;;;;;;;9.68;2.08;;;13.10;62.10;;;;;;4865873;29;20120;-74
2022/02/24 06:50:07;;;;;;;8.13;1.92;;;13.40;61.60;;;;;;4865309;29;20050;-77
2022/02/24 06:52:33;;;;;;;5.90;2.17;;;13.80;61.30;;;;;;4865162;29;20053;-73
2022/02/24 06:54:59;;;;;;;14.73;1.77;;;14.00;61.20;;;;;;4864418;29;20102;-76
2022/02/24 06:57:24;;;;;;;7.47;1.85;;;14.30;61.00;;;;;;4870918;29;20041;-78
2022/02/24 06:59:50;;;;;;;8.77;1.85;;;14.60;60.90;;;;;;4884075;29;20052;-78
2022/02/24 07:02:16;;;;;;;8.52;1.75;;;14.50;60.50;;;;;;4865598;29;20120;-81
2022/02/24 07:04:42;;;;;;;6.03;1.88;;;14.70;60.60;;;;;;4869935;29;20401;-79
2022/02/24 07:07:07;;;;;;;10.23;1.63;;;15.00;60.50;;;;;;4883069;29;20113;-79
2022/02/24 07:09:33;;;;;;;6.35;1.73;;;15.20;60.20;;;;;;4883079;29;20064;-79
2022/02/24 07:11:59;;;;;;;13.00;2.67;;;15.30;60.10;;;;;;4883009;29;20052;-80
2022/02/24 07:14:25;;;;;;;20.70;2.63;;;15.30;59.20;;;;;;4866390;29;20448;-80
2022/02/24 07:16:50;;;;;;;12.68;2.83;;;15.20;60.40;;;;;;4864154;29;20053;-79
2022/02/24 07:19:16;;;;;;;10.88;2.17;;;15.40;60.90;;;;;;4865314;29;20098;-75
2022/02/24 07:21:42;;;;;;;24.63;2.65;;;15.50;61.10;;;;;;4865100;29;20037;-77
2022/02/24 07:24:08;;;;;;;9.02;2.00;;;15.60;61.80;;;;;;4848649;29;20467;-77
2022/02/24 07:26:34;;;;;;;10.13;1.73;;;15.70;61.20;;;;;;4849453;29;20528;-77
2022/02/24 07:29:00;;;;;;;9.00;1.58;;;15.80;61.50;;;;;;4864482;29;20053;-75
2022/02/24 07:31:26;;;;;;;7.45;1.48;;;15.90;61.40;;;;;;4865453;29;20057;-80
2022/02/24 07:33:52;;;;;;;10.00;1.63;;;16.00;60.90;;;;;;4857910;29;20050;-79
2022/02/24 07:36:17;;;;;;;11.45;1.83;;;16.10;60.70;;;;;;4864683;29;20042;-78
2022/02/24 07:38:43;;;;;;;6.47;2.20;;;16.20;60.80;;;;;;4848601;29;20100;-78
2022/02/24 07:41:10;;;;;;;9.88;2.15;;;16.30;60.70;;;;;;4864784;29;20053;-78
2022/02/24 07:43:36;;;;;;;7.75;1.52;;;16.40;60.50;;;;;;4864809;29;20065;-78
2022/02/24 07:46:03;;;;;;;9.80;1.30;;;16.60;60.60;;;;;;4868845;29;20056;-79
2022/02/24 07:48:29;;;;;;;8.38;1.85;;;16.70;60.40;;;;;;4882648;29;20083;-81
2022/02/24 07:50:58;;;;;;;9.07;2.33;;;16.80;60.30;;;;;;4865934;29;20049;-83
2022/02/24 07:53:24;;;;;;;10.93;1.80;;;16.80;60.20;;;;;;4865104;29;20057;-77
2022/02/24 07:55:50;;;;;;;11.00;2.28;;;16.80;59.70;;;;;;4864252;29;20052;-73
2022/02/24 07:58:18;;;;;;;13.13;2.33;;;16.80;59.30;;;;;;4863106;29;20063;-75
2022/02/24 08:00:45;;;;;;;18.52;2.78;;;16.80;59.40;;;;;;4861630;29;20454;-76
2022/02/24 08:03:11;;;;;;;15.27;2.50;;;16.80;59.50;;;;;;4853509;29;20065;-77
2022/02/24 08:05:37;;;;;;;15.88;1.98;;;16.90;59.80;;;;;;4846631;29;20132;-76
2022/02/24 08:08:03;;;;;;;10.27;1.77;;;16.80;59.90;;;;;;4855886;29;20148;-75
2022/02/24 08:10:30;;;;;;;13.20;1.80;;;16.90;60.00;;;;;;4863601;29;20049;-74
2022/02/24 08:12:56;;;;;;;10.73;1.70;;;16.90;59.90;;;;;;4863717;29;20059;-75
2022/02/24 08:15:22;;;;;;;10.80;2.53;;;16.90;60.00;;;;;;4864233;29;20139;-75
2022/02/24 08:17:50;;;;;;;9.15;1.83;;;16.90;59.90;;;;;;4864308;29;20057;-78
2022/02/24 08:20:19;;;;;;;16.83;2.75;;;16.90;59.90;;;;;;4862756;29;20128;-77
2022/02/24 08:22:51;;;;;;;8.95;2.30;;;17.00;60.00;;;;;;4863849;29;20455;-79
2022/02/24 08:25:20;;;;;;;12.43;2.75;;;17.10;59.80;;;;;;4848031;29;20046;-76
2022/02/24 08:27:47;;;;;;;14.10;2.17;;;17.10;59.70;;;;;;4863574;29;20053;-76
2022/02/24 08:30:17;;;;;;;8.05;1.95;;;17.20;59.70;;;;;;4864039;29;20048;-77
2022/02/24 08:32:45;;;;;;;7.57;1.52;;;17.20;59.50;;;;;;4863407;29;20669;-75
2022/02/24 08:35:12;;;;;;;8.15;2.20;;;17.30;59.40;;;;;;4862687;29;20057;-76
2022/02/24 08:37:39;;;;;;;10.57;1.85;;;17.40;59.20;;;;;;4859642;29;20060;-75
2022/02/24 08:40:06;;;;;;;6.78;1.70;;;17.40;59.20;;;;;;4864166;29;20097;-76
2022/02/24 08:42:32;;;;;;;8.75;2.35;;;17.40;59.20;;;;;;4863932;29;20049;-76
2022/02/24 08:44:57;;;;;;;10.98;2.60;;;17.40;59.30;;;;;;4863482;29;20045;-75
2022/02/24 08:47:24;;;;;;;12.27;2.05;;;16.60;53.90;;;;;;4863529;29;20045;-74
2022/02/24 08:49:51;;;;;;;19.75;2.55;;;16.10;57.50;;;;;;4864012;29;20353;-73
2022/02/24 08:52:17;;;;;;;31.40;2.72;;;15.70;58.90;;;;;;4863510;29;20057;-75
2022/02/24 08:54:43;;;;;;;19.10;2.92;;;16.10;60.90;;;;;;4863860;29;20045;-77
2022/02/24 08:57:12;;;;;;;8.00;1.75;;;16.30;60.70;;;;;;4858643;29;20448;-79
2022/02/24 08:59:41;;;;;;;17.27;2.75;;;16.50;60.40;;;;;;4843737;29;20045;-80
2022/02/24 09:02:06;;;;;;;14.43;2.10;;;16.50;60.00;;;;;;4845025;29;20052;-75
2022/02/24 09:04:32;;;;;;;10.02;2.10;;;16.70;58.90;;;;;;4845027;29;20117;-74
2022/02/24 09:06:58;;;;;;;18.77;2.47;;;16.80;58.40;;;;;;4855659;29;20459;-73
2022/02/24 09:09:26;;;;;;;18.13;2.25;;;16.90;57.90;;;;;;4863518;29;20064;-73
2022/02/24 09:11:52;;;;;;;14.10;2.97;;;16.90;57.60;;;;;;4863242;29;20117;-75
2022/02/24 09:14:18;;;;;;;14.75;2.65;;;17.00;57.70;;;;;;4861141;29;20061;-72
2022/02/24 09:16:44;;;;;;;17.02;2.67;;;17.00;57.70;;;;;;4862250;29;20452;-75
2022/02/24 09:19:13;;;;;;;15.18;2.60;;;17.00;57.70;;;;;;4861890;29;20065;-75
2022/02/24 09:21:40;;;;;;;11.73;1.88;;;17.10;57.80;;;;;;4863294;29;20458;-74
2022/02/24 09:24:06;;;;;;;16.92;2.08;;;17.20;57.80;;;;;;4863388;29;20068;-76
2022/02/24 09:26:33;;;;;;;12.55;2.25;;;17.20;57.80;;;;;;4863178;29;20486;-76
2022/02/24 09:29:00;;;;;;;9.13;2.00;;;17.20;58.10;;;;;;4862824;29;20431;-75
2022/02/24 09:31:27;;;;;;;13.75;2.05;;;17.30;58.20;;;;;;4862858;29;20057;-78
2022/02/24 09:33:52;;;;;;;9.02;1.83;;;17.30;58.20;;;;;;4856208;29;20118;-73
2022/02/24 09:36:18;;;;;;;11.38;2.33;;;17.40;58.20;;;;;;4860921;29;20053;-75
2022/02/24 09:38:44;;;;;;;12.30;1.95;;;17.50;58.10;;;;;;4862667;29;20105;-79
2022/02/24 09:41:11;;;;;;;7.38;1.77;;;17.50;58.00;;;;;;4857207;29;20460;-76
2022/02/24 09:43:37;;;;;;;11.27;1.83;;;17.50;58.00;;;;;;4852778;29;20387;-74
2022/02/24 09:46:05;;;;;;;13.07;2.53;;;17.50;57.90;;;;;;4846147;29;20130;-77
2022/02/24 09:48:33;;;;;;;10.57;2.25;;;17.50;57.90;;;;;;4862833;29;20061;-76
2022/02/24 09:51:03;;;;;;;5.82;1.35;;;17.60;58.60;;;;;;4859532;29;20065;-75
2022/02/24 09:53:33;;;;;;;8.60;1.92;;;17.60;58.00;;;;;;4862689;29;20049;-89
2022/02/24 09:56:00;;;;;;;6.90;2.20;;;17.60;57.90;;;;;;4862583;29;20340;-74
2022/02/24 09:58:26;;;;;;;10.13;2.20;;;17.60;57.90;;;;;;4861050;29;20078;-75
2022/02/24 10:00:52;;;;;;;7.65;1.85;;;17.60;58.00;;;;;;4846757;29;20061;-76
2022/02/24 10:03:41;;;;;;;9.98;2.55;;;17.60;58.10;;;;;;4861016;29;20041;-75
2022/02/24 10:06:09;;;;;;;8.07;1.63;;;17.60;58.20;;;;;;4843758;29;20062;-74
2022/02/24 10:08:41;;;;;;;7.15;1.85;;;17.60;58.40;;;;;;4844611;29;20057;-77
2022/02/24 10:11:21;;;;;;;8.23;1.90;;;17.60;58.30;;;;;;4841812;29;20384;-76
2022/02/24 10:14:06;;;;;;;8.40;1.70;;;17.60;58.50;;;;;;4844067;29;20065;-76
2022/02/24 10:16:54;;;;;;;7.47;2.30;;;17.60;58.70;;;;;;4844200;29;20049;-76
2022/02/24 10:19:37;;;;;;;6.50;1.65;;;17.60;59.00;;;;;;4843379;29;20065;-76
2022/02/24 10:22:07;;;;;;;6.05;1.58;;;17.50;59.00;;;;;;4843333;29;20054;-76
2022/02/24 10:24:32;;;;;;;12.48;2.15;;;17.60;59.20;;;;;;4869983;29;20045;-77
2022/02/24 10:27:20;;;;;;;6.00;1.98;;;17.60;59.10;;;;;;4881130;29;20454;-76
2022/02/24 10:30:03;;;;;;;10.32;1.98;;;17.50;59.10;;;;;;4879766;29;20065;-75
2022/02/24 10:32:40;;;;;;;13.90;2.43;;;17.50;58.80;;;;;;4879837;29;20390;-73
2022/02/24 10:35:25;;;;;;;6.55;1.70;;;17.50;58.80;;;;;;4880824;29;20057;-74
2022/02/24 10:38:12;;;;;;;7.95;1.80;;;17.50;58.50;;;;;;4880820;29;20061;-79
2022/02/24 10:40:47;;;;;;;8.10;2.00;;;17.50;58.60;;;;;;4850860;29;20060;-75
2022/02/24 10:43:21;;;;;;;10.52;1.88;;;17.40;58.70;;;;;;4862223;29;20082;-74
2022/02/24 10:46:05;;;;;;;9.18;1.80;;;17.40;58.90;;;;;;4862249;29;20439;-75
2022/02/24 10:48:32;;;;;;;8.65;1.50;;;17.40;58.60;;;;;;4862190;29;20045;-75
2022/02/24 10:51:01;;;;;;;9.50;1.92;;;17.20;58.40;;;;;;4856721;29;20034;-80
2022/02/24 10:53:30;;;;;;;12.52;1.95;;;17.20;58.10;;;;;;4858811;29;20527;-78
2022/02/24 10:56:12;;;;;;;9.68;1.77;;;17.20;58.50;;;;;;4855283;29;20058;-76
2022/02/24 10:58:41;;;;;;;7.65;1.30;;;17.20;59.10;;;;;;4845372;29;20054;-78
2022/02/24 11:01:12;;;;;;;7.90;1.65;;;17.20;59.10;;;;;;4861837;29;20082;-78
2022/02/24 11:03:40;;;;;;;8.73;1.58;;;17.30;59.10;;;;;;4856244;29;20474;-78
2022/02/24 11:06:07;;;;;;;10.05;1.70;;;17.30;59.10;;;;;;4847380;29;20380;-78
2022/02/24 11:08:35;;;;;;;5.57;1.02;;;17.30;59.20;;;;;;4850706;29;20443;-81
2022/02/24 11:11:05;;;;;;;8.80;1.88;;;17.40;59.00;;;;;;4862141;29;20061;-80
2022/02/24 11:13:30;;;;;;;9.90;1.70;;;17.40;59.10;;;;;;4862367;29;20056;-79
2022/02/24 11:15:57;;;;;;;8.70;1.65;;;17.40;59.20;;;;;;4859075;29;20045;-72
2022/02/24 11:18:23;;;;;;;9.82;1.42;;;17.40;59.20;;;;;;4857151;29;20046;-78
2022/02/24 11:20:50;;;;;;;5.18;1.30;;;17.40;59.20;;;;;;4862130;29;20057;-79
2022/02/24 11:23:16;;;;;;;5.40;1.45;;;17.40;59.20;;;;;;4874405;29;20049;-78
2022/02/24 11:26:07;;;;;;;5.15;1.10;;;17.50;59.50;;;;;;4867001;29;20048;-82
2022/02/24 11:28:44;;;;;;;4.13;1.38;;;17.50;59.70;;;;;;4866565;29;20414;-81
2022/02/24 11:31:22;;;;;;;7.10;1.42;;;17.50;59.70;;;;;;4878704;29;20069;-81
2022/02/24 11:33:53;;;;;;;7.07;1.15;;;17.50;60.00;;;;;;4848512;29;20118;-81
2022/02/24 11:36:20;;;;;;;5.82;0.98;;;17.50;60.20;;;;;;4863769;29;20041;-81
2022/02/24 11:39:10;;;;;;;5.65;1.15;;;17.50;60.20;;;;;;4870781;29;20144;-81
2022/02/24 11:41:57;;;;;;;6.13;1.40;;;17.50;60.50;;;;;;4854450;29;20058;-80
2022/02/24 11:44:49;;;;;;;6.75;1.45;;;17.50;60.60;;;;;;4830086;29;20046;-78
2022/02/24 11:47:15;;;;;;;9.77;2.15;;;17.50;60.10;;;;;;4853139;29;20473;-78
2022/02/24 11:49:53;;;;;;;9.00;1.50;;;17.40;59.00;;;;;;4848691;29;20158;-81
2022/02/24 11:52:43;;;;;;;6.50;1.13;;;17.40;58.30;;;;;;4864713;29;20061;-79
2022/02/24 11:55:39;;;;;;;7.60;1.20;;;17.40;58.00;;;;;;4863816;29;20057;-79
2022/02/24 11:58:45;;;;;;;8.18;1.77;;;17.40;58.10;;;;;;4864679;29;20068;-79
2022/02/24 12:01:22;;;;;;;4.93;1.10;;;17.40;58.40;;;;;;4845352;29;20046;-80
2022/02/24 12:03:52;;;;;;;5.60;1.40;;;17.40;58.60;;;;;;4845095;29;20060;-79
2022/02/24 12:06:21;;;;;;;5.93;1.25;;;17.40;58.80;;;;;;4857179;29;20084;-79
2022/02/24 12:09:26;;;;;;;12.43;1.80;;;17.40;58.50;;;;;;4862942;29;20057;-79
2022/02/24 12:12:02;;;;;;;5.60;2.08;;;17.40;58.40;;;;;;4805147;29;20062;-79
2022/02/24 12:14:27;;;;;;;10.43;1.55;;;17.40;58.50;;;;;;4804866;29;20051;-80
2022/02/24 12:17:05;;;;;;;4.40;1.30;;;17.40;58.80;;;;;;4836886;29;20064;-78
2022/02/24 12:19:53;;;;;;;6.35;1.27;;;17.40;58.30;;;;;;4860236;29;20151;-78
2022/02/24 12:22:22;;;;;;;8.68;1.55;;;17.40;58.00;;;;;;4860015;29;20050;-79
2022/02/24 12:24:53;;;;;;;4.15;1.15;;;17.40;58.50;;;;;;4863257;29;20049;-79
2022/02/24 12:27:22;;;;;;;8.50;1.50;;;17.40;58.70;;;;;;4863469;29;20087;-78
2022/02/24 12:30:09;;;;;;;6.65;1.10;;;17.50;58.80;;;;;;4863517;29;20053;-78
2022/02/24 12:32:57;;;;;;;11.18;1.40;;;17.50;61.60;;;;;;4863409;29;20060;-78
2022/02/24 12:35:25;;;;;;;8.18;1.10;;;17.50;60.60;;;;;;4862130;29;20106;-81
2022/02/24 12:37:52;;;;;;;8.65;1.98;;;17.40;60.50;;;;;;4862701;29;20181;-79
2022/02/24 12:40:27;;;;;;;6.07;1.90;;;17.40;60.70;;;;;;4863470;29;20049;-78
2022/02/24 12:42:53;;;;;;;9.02;1.67;;;17.40;61.00;;;;;;4855417;29;20041;-78
2022/02/24 12:45:21;;;;;;;8.15;1.60;;;17.40;61.50;;;;;;4862597;29;20045;-79
2022/02/24 12:47:52;;;;;;;11.02;1.73;;;17.40;60.90;;;;;;4863240;29;20065;-79